sensor_id;sensor_type;location;lat;lon;timestamp;pressure;altitude;pressure_sealevel;temperature;humidity
70559;BME280;58108;48.094;11.838;2024-01-11T00:01:46;96144.50;;;-7.70;100.00
70559;BME280;58108;48.094;11.838;2024-01-11T00:04:12;96147.88;;;-7.70;100.00
70559;BME280;58108;48.094;11.838;2024-01-11T00:06:44;96143.63;;;-7.72;100.00
70559;BME280;58108;48.094;11.838;2024-01-11T00:09:11;96146.13;;;-7.78;100.00
70559;BME280;58108;48.094;11.838;2024-01-11T00:11:36;96152.91;;;-7.84;100.00
70559;BME280;58108;48.094;11.838;2024-01-11T00:14:02;96146.06;;;-7.92;100.00
70559;BME280;58108;48.094;11.838;2024-01-11T00:16:28;96156.28;;;-7.85;100.00
70559;BME280;58108;48.094;11.838;2024-01-11T00:18:53;96153.69;;;-7.94;100.00
70559;BME280;58108;48.094;11.838;2024-01-11T00:21:19;96161.41;;;-7.75;100.00
70559;BME280;58108;48.094;11.838;2024-01-11T00:23:44;96158.00;;;-7.80;100.00
70559;BME280;58108;48.094;11.838;2024-01-11T00:26:12;96163.22;;;-7.46;100.00
70559;BME280;58108;48.094;11.838;2024-01-11T00:28:38;96157.38;;;-7.17;100.00
70559;BME280;58108;48.094;11.838;2024-01-11T00:31:04;96153.16;;;-7.04;100.00
70559;BME280;58108;48.094;11.838;2024-01-11T00:33:30;96153.97;;;-7.16;100.00
70559;BME280;58108;48.094;11.838;2024-01-11T00:35:55;96146.34;;;-7.10;100.00
70559;BME280;58108;48.094;11.838;2024-01-11T00:38:21;96145.47;;;-7.12;100.00
70559;BME280;58108;48.094;11.838;2024-01-11T00:40:46;96149.69;;;-7.30;100.00
70559;BME280;58108;48.094;11.838;2024-01-11T00:43:12;96151.38;;;-7.30;100.00
70559;BME280;58108;48.094;11.838;2024-01-11T00:45:37;96154.00;;;-6.94;100.00
70559;BME280;58108;48.094;11.838;2024-01-11T00:48:04;96148.91;;;-7.05;100.00
70559;BME280;58108;48.094;11.838;2024-01-11T00:50:29;96145.44;;;-7.38;100.00
70559;BME280;58108;48.094;11.838;2024-01-11T00:52:55;96143.78;;;-7.21;100.00
70559;BME280;58108;48.094;11.838;2024-01-11T00:55:20;96147.22;;;-7.11;100.00
70559;BME280;58108;48.094;11.838;2024-01-11T00:57:46;96139.56;;;-7.11;100.00
70559;BME280;58108;48.094;11.838;2024-01-11T01:00:12;96150.59;;;-7.01;100.00
70559;BME280;58108;48.094;11.838;2024-01-11T01:02:39;96155.69;;;-7.14;100.00
70559;BME280;58108;48.094;11.838;2024-01-11T01:05:05;96154.00;;;-6.97;100.00
70559;BME280;58108;48.094;11.838;2024-01-11T01:07:31;96154.78;;;-7.31;100.00
70559;BME280;58108;48.094;11.838;2024-01-11T01:09:57;96158.16;;;-7.32;100.00
70559;BME280;58108;48.094;11.838;2024-01-11T01:12:22;96159.91;;;-7.23;100.00
70559;BME280;58108;48.094;11.838;2024-01-11T01:14:51;96165.78;;;-7.45;100.00
70559;BME280;58108;48.094;11.838;2024-01-11T01:17:16;96170.81;;;-7.52;100.00
70559;BME280;58108;48.094;11.838;2024-01-11T01:19:42;96161.50;;;-7.49;100.00
70559;BME280;58108;48.094;11.838;2024-01-11T01:22:07;96165.66;;;-7.70;100.00
70559;BME280;58108;48.094;11.838;2024-01-11T01:24:33;96162.31;;;-7.62;100.00
70559;BME280;58108;48.094;11.838;2024-01-11T01:26:58;96167.47;;;-7.45;100.00
70559;BME280;58108;48.094;11.838;2024-01-11T01:29:24;96169.13;;;-7.55;100.00
70559;BME280;58108;48.094;11.838;2024-01-11T01:31:50;96163.09;;;-7.82;100.00
70559;BME280;58108;48.094;11.838;2024-01-11T01:34:16;96161.34;;;-7.91;100.00
70559;BME280;58108;48.094;11.838;2024-01-11T01:36:41;96162.16;;;-7.97;100.00
70559;BME280;58108;48.094;11.838;2024-01-11T01:39:07;96174.09;;;-7.77;100.00
70559;BME280;58108;48.094;11.838;2024-01-11T01:41:33;96180.84;;;-7.87;100.00
70559;BME280;58108;48.094;11.838;2024-01-11T01:43:58;96174.06;;;-7.89;100.00
70559;BME280;58108;48.094;11.838;2024-01-11T01:46:24;96169.84;;;-7.86;100.00
70559;BME280;58108;48.094;11.838;2024-01-11T01:48:51;96179.09;;;-8.00;100.00
70559;BME280;58108;48.094;11.838;2024-01-11T01:51:19;96189.28;;;-7.96;100.00
70559;BME280;58108;48.094;11.838;2024-01-11T01:53:45;96191.81;;;-7.96;100.00
70559;BME280;58108;48.094;11.838;2024-01-11T01:56:11;96197.84;;;-7.75;100.00
70559;BME280;58108;48.094;11.838;2024-01-11T01:58:37;96187.66;;;-7.78;100.00
70559;BME280;58108;48.094;11.838;2024-01-11T02:01:03;96192.91;;;-7.41;100.00
70559;BME280;58108;48.094;11.838;2024-01-11T02:03:29;96191.16;;;-7.54;100.00
70559;BME280;58108;48.094;11.838;2024-01-11T02:05:55;96191.97;;;-7.61;100.00
70559;BME280;58108;48.094;11.838;2024-01-11T02:08:22;96190.19;;;-7.79;100.00
70559;BME280;58108;48.094;11.838;2024-01-11T02:10:49;96188.50;;;-7.76;100.00
70559;BME280;58108;48.094;11.838;2024-01-11T02:13:15;96192.69;;;-7.90;100.00
70559;BME280;58108;48.094;11.838;2024-01-11T02:15:40;96188.53;;;-7.73;100.00
70559;BME280;58108;48.094;11.838;2024-01-11T02:18:06;96192.69;;;-7.89;100.00
70559;BME280;58108;48.094;11.838;2024-01-11T02:20:32;96195.19;;;-7.98;100.00
70559;BME280;58108;48.094;11.838;2024-01-11T02:23:01;96190.06;;;-8.04;100.00
70559;BME280;58108;48.094;11.838;2024-01-11T02:25:28;96184.13;;;-8.06;100.00
70559;BME280;58108;48.094;11.838;2024-01-11T02:27:54;96186.69;;;-8.02;100.00
70559;BME280;58108;48.094;11.838;2024-01-11T02:30:19;96176.63;;;-7.83;100.00
70559;BME280;58108;48.094;11.838;2024-01-11T02:32:45;96184.19;;;-7.97;100.00
70559;BME280;58108;48.094;11.838;2024-01-11T02:35:17;96186.72;;;-7.94;100.00
70559;BME280;58108;48.094;11.838;2024-01-11T02:37:44;96186.72;;;-7.94;100.00
70559;BME280;58108;48.094;11.838;2024-01-11T02:40:13;96180.84;;;-7.90;100.00
70559;BME280;58108;48.094;11.838;2024-01-11T02:42:38;96174.19;;;-7.57;100.00
70559;BME280;58108;48.094;11.838;2024-01-11T02:45:04;96172.41;;;-7.83;100.00
70559;BME280;58108;48.094;11.838;2024-01-11T02:47:30;96174.19;;;-7.55;100.00
70559;BME280;58108;48.094;11.838;2024-01-11T02:49:56;96168.22;;;-7.68;100.00
70559;BME280;58108;48.094;11.838;2024-01-11T02:52:24;96164.69;;;-7.95;100.00
70559;BME280;58108;48.094;11.838;2024-01-11T02:54:50;96169.69;;;-8.14;100.00
70559;BME280;58108;48.094;11.838;2024-01-11T02:57:15;96162.97;;;-7.98;100.00
70559;BME280;58108;48.094;11.838;2024-01-11T02:59:42;96159.63;;;-7.97;100.00
70559;BME280;58108;48.094;11.838;2024-01-11T03:02:08;96157.19;;;-7.69;100.00
70559;BME280;58108;48.094;11.838;2024-01-11T03:04:34;96148.78;;;-7.49;100.00
70559;BME280;58108;48.094;11.838;2024-01-11T03:06:59;96145.41;;;-7.56;100.00
70559;BME280;58108;48.094;11.838;2024-01-11T03:09:25;96145.25;;;-7.87;100.00
70559;BME280;58108;48.094;11.838;2024-01-11T03:11:50;96146.13;;;-7.82;100.00
70559;BME280;58108;48.094;11.838;2024-01-11T03:14:16;96141.78;;;-8.01;100.00
70559;BME280;58108;48.094;11.838;2024-01-11T03:16:41;96140.06;;;-8.12;100.00
70559;BME280;58108;48.094;11.838;2024-01-11T03:19:07;96151.03;;;-8.14;100.00
70559;BME280;58108;48.094;11.838;2024-01-11T03:21:33;96147.63;;;-8.18;100.00
70559;BME280;58108;48.094;11.838;2024-01-11T03:23:58;96152.69;;;-8.23;100.00
70559;BME280;58108;48.094;11.838;2024-01-11T03:26:25;96148.44;;;-8.28;100.00
70559;BME280;58108;48.094;11.838;2024-01-11T03:28:51;96149.31;;;-8.17;100.00
70559;BME280;58108;48.094;11.838;2024-01-11T03:31:16;96142.59;;;-8.15;100.00
70559;BME280;58108;48.094;11.838;2024-01-11T03:33:42;96135.84;;;-8.08;100.00
70559;BME280;58108;48.094;11.838;2024-01-11T03:36:09;96138.38;;;-8.11;100.00
70559;BME280;58108;48.094;11.838;2024-01-11T03:38:34;96142.50;;;-8.30;100.00
70559;BME280;58108;48.094;11.838;2024-01-11T03:41:00;96136.78;;;-7.89;100.00
70559;BME280;58108;48.094;11.838;2024-01-11T03:43:25;96134.19;;;-8.03;100.00
70559;BME280;58108;48.094;11.838;2024-01-11T03:45:51;96133.44;;;-7.72;100.00
70559;BME280;58108;48.094;11.838;2024-01-11T03:48:16;96124.84;;;-8.02;100.00
70559;BME280;58108;48.094;11.838;2024-01-11T03:50:42;96127.50;;;-7.82;100.00
70559;BME280;58108;48.094;11.838;2024-01-11T03:53:07;96127.41;;;-7.96;100.00
70559;BME280;58108;48.094;11.838;2024-01-11T03:55:33;96126.47;;;-8.20;100.00
70559;BME280;58108;48.094;11.838;2024-01-11T03:57:59;96116.38;;;-8.07;100.00
70559;BME280;58108;48.094;11.838;2024-01-11T04:00:24;96114.69;;;-8.01;100.00
70559;BME280;58108;48.094;11.838;2024-01-11T04:02:50;96110.47;;;-7.97;100.00
70559;BME280;58108;48.094;11.838;2024-01-11T04:05:15;96102.84;;;-8.00;100.00
70559;BME280;58108;48.094;11.838;2024-01-11T04:07:41;96103.72;;;-7.93;100.00
70559;BME280;58108;48.094;11.838;2024-01-11T04:10:07;96102.13;;;-7.66;100.00
70559;BME280;58108;48.094;11.838;2024-01-11T04:12:35;96104.63;;;-7.82;100.00
70559;BME280;58108;48.094;11.838;2024-01-11T04:15:01;96107.91;;;-8.06;100.00
70559;BME280;58108;48.094;11.838;2024-01-11T04:17:28;96104.47;;;-8.08;100.00
70559;BME280;58108;48.094;11.838;2024-01-11T04:19:53;96110.41;;;-8.13;100.00
70559;BME280;58108;48.094;11.838;2024-01-11T04:22:19;96115.66;;;-7.68;100.00
70559;BME280;58108;48.094;11.838;2024-01-11T04:24:44;96122.50;;;-7.57;100.00
70559;BME280;58108;48.094;11.838;2024-01-11T04:27:10;96116.47;;;-7.79;100.00
70559;BME280;58108;48.094;11.838;2024-01-11T04:29:36;96120.78;;;-7.57;100.00
70559;BME280;58108;48.094;11.838;2024-01-11T04:32:01;96123.41;;;-7.19;100.00
70559;BME280;58108;48.094;11.838;2024-01-11T04:34:27;96123.44;;;-7.21;100.00
70559;BME280;58108;48.094;11.838;2024-01-11T04:36:52;96125.94;;;-7.30;100.00
70559;BME280;58108;48.094;11.838;2024-01-11T04:39:18;96129.34;;;-7.16;100.00
70559;BME280;58108;48.094;11.838;2024-01-11T04:41:43;96136.16;;;-7.08;100.00
70559;BME280;58108;48.094;11.838;2024-01-11T04:44:10;96136.97;;;-7.33;100.00
70559;BME280;58108;48.094;11.838;2024-01-11T04:46:35;96138.53;;;-7.68;100.00
70559;BME280;58108;48.094;11.838;2024-01-11T04:49:01;96135.16;;;-7.65;100.00
70559;BME280;58108;48.094;11.838;2024-01-11T04:51:26;96139.38;;;-7.78;100.00
70559;BME280;58108;48.094;11.838;2024-01-11T04:53:52;96134.28;;;-7.75;100.00
70559;BME280;58108;48.094;11.838;2024-01-11T04:56:17;96133.47;;;-7.69;100.00
70559;BME280;58108;48.094;11.838;2024-01-11T04:58:44;96136.88;;;-7.62;100.00
70559;BME280;58108;48.094;11.838;2024-01-11T05:01:14;96134.47;;;-7.22;100.00
70559;BME280;58108;48.094;11.838;2024-01-11T05:03:40;96131.03;;;-7.33;100.00
70559;BME280;58108;48.094;11.838;2024-01-11T05:06:06;96136.00;;;-7.74;100.00
70559;BME280;58108;48.094;11.838;2024-01-11T05:08:31;96140.34;;;-7.34;100.00
70559;BME280;58108;48.094;11.838;2024-01-11T05:10:57;96147.03;;;-7.64;100.00
70559;BME280;58108;48.094;11.838;2024-01-11T05:13:22;96132.59;;;-7.82;100.00
70559;BME280;58108;48.094;11.838;2024-01-11T05:15:48;96132.41;;;-8.19;100.00
70559;BME280;58108;48.094;11.838;2024-01-11T05:18:14;96141.03;;;-7.85;100.00
70559;BME280;58108;48.094;11.838;2024-01-11T05:20:39;96142.72;;;-7.87;100.00
70559;BME280;58108;48.094;11.838;2024-01-11T05:23:05;96140.00;;;-8.23;100.00
70559;BME280;58108;48.094;11.838;2024-01-11T05:25:31;96137.47;;;-8.18;100.00
70559;BME280;58108;48.094;11.838;2024-01-11T05:28:00;96129.94;;;-8.04;100.00
70559;BME280;58108;48.094;11.838;2024-01-11T05:30:26;96131.50;;;-8.26;100.00
70559;BME280;58108;48.094;11.838;2024-01-11T05:32:53;96140.78;;;-8.31;100.00
70559;BME280;58108;48.094;11.838;2024-01-11T05:35:19;96140.94;;;-8.03;100.00
70559;BME280;58108;48.094;11.838;2024-01-11T05:37:44;96146.19;;;-7.69;100.00
70559;BME280;58108;48.094;11.838;2024-01-11T05:40:10;96147.69;;;-8.07;100.00
70559;BME280;58108;48.094;11.838;2024-01-11T05:42:35;96144.25;;;-8.23;100.00
70559;BME280;58108;48.094;11.838;2024-01-11T05:45:06;96145.91;;;-8.28;100.00
70559;BME280;58108;48.094;11.838;2024-01-11T05:47:31;96150.91;;;-8.39;100.00
70559;BME280;58108;48.094;11.838;2024-01-11T05:49:57;96153.47;;;-8.34;100.00
70559;BME280;58108;48.094;11.838;2024-01-11T05:52:22;96150.03;;;-8.40;100.00
70559;BME280;58108;48.094;11.838;2024-01-11T05:54:48;96155.16;;;-8.35;100.00
70559;BME280;58108;48.094;11.838;2024-01-11T05:57:14;96164.50;;;-8.28;100.00
70559;BME280;58108;48.094;11.838;2024-01-11T05:59:45;96175.81;;;-7.77;100.00
70559;BME280;58108;48.094;11.838;2024-01-11T06:02:12;96168.06;;;-8.04;100.00
70559;BME280;58108;48.094;11.838;2024-01-11T06:04:37;96161.09;;;-8.38;100.00
70559;BME280;58108;48.094;11.838;2024-01-11T06:07:03;96158.44;;;-8.56;100.00
70559;BME280;58108;48.094;11.838;2024-01-11T06:09:28;96173.69;;;-8.53;100.00
70559;BME280;58108;48.094;11.838;2024-01-11T06:11:54;96173.00;;;-8.27;100.00
70559;BME280;58108;48.094;11.838;2024-01-11T06:14:20;96171.25;;;-8.34;100.00
70559;BME280;58108;48.094;11.838;2024-01-11T06:16:45;96174.59;;;-8.39;100.00
70559;BME280;58108;48.094;11.838;2024-01-11T06:19:11;96179.03;;;-8.08;100.00
70559;BME280;58108;48.094;11.838;2024-01-11T06:21:36;96181.69;;;-7.88;100.00
70559;BME280;58108;48.094;11.838;2024-01-11T06:24:02;96183.44;;;-7.71;100.00
70559;BME280;58108;48.094;11.838;2024-01-11T06:26:28;96187.66;;;-7.79;100.00
70559;BME280;58108;48.094;11.838;2024-01-11T06:28:54;96187.50;;;-8.09;100.00
70559;BME280;58108;48.094;11.838;2024-01-11T06:31:19;96201.63;;;-8.52;100.00
70559;BME280;58108;48.094;11.838;2024-01-11T06:33:45;96199.22;;;-8.33;100.00
70559;BME280;58108;48.094;11.838;2024-01-11T06:36:10;96202.63;;;-8.26;100.00
70559;BME280;58108;48.094;11.838;2024-01-11T06:38:36;96208.84;;;-7.80;100.00
70559;BME280;58108;48.094;11.838;2024-01-11T06:41:01;96205.50;;;-7.69;100.00
70559;BME280;58108;48.094;11.838;2024-01-11T06:43:27;96218.00;;;-8.07;100.00
70559;BME280;58108;48.094;11.838;2024-01-11T06:45:53;96221.19;;;-8.35;100.00
70559;BME280;58108;48.094;11.838;2024-01-11T06:48:18;96226.25;;;-8.35;100.00
70559;BME280;58108;48.094;11.838;2024-01-11T06:50:44;96222.50;;;-8.87;100.00
70559;BME280;58108;48.094;11.838;2024-01-11T06:53:09;96221.84;;;-8.64;100.00
70559;BME280;58108;48.094;11.838;2024-01-11T06:55:35;96220.09;;;-8.70;100.00
70559;BME280;58108;48.094;11.838;2024-01-11T06:58:00;96219.94;;;-8.85;100.00
70559;BME280;58108;48.094;11.838;2024-01-11T07:00:27;96225.88;;;-8.83;100.00
70559;BME280;58108;48.094;11.838;2024-01-11T07:02:53;96228.50;;;-8.75;100.00
70559;BME280;58108;48.094;11.838;2024-01-11T07:05:19;96216.03;;;-8.47;100.00
70559;BME280;58108;48.094;11.838;2024-01-11T07:07:45;96222.13;;;-8.24;100.00
70559;BME280;58108;48.094;11.838;2024-01-11T07:10:10;96219.63;;;-8.19;100.00
70559;BME280;58108;48.094;11.838;2024-01-11T07:12:36;96233.84;;;-8.41;100.00
70559;BME280;58108;48.094;11.838;2024-01-11T07:15:03;96234.66;;;-8.42;100.00
70559;BME280;58108;48.094;11.838;2024-01-11T07:17:30;96233.44;;;-7.75;100.00
70559;BME280;58108;48.094;11.838;2024-01-11T07:19:55;96237.69;;;-7.75;100.00
70559;BME280;58108;48.094;11.838;2024-01-11T07:22:21;96230.66;;;-8.14;100.00
70559;BME280;58108;48.094;11.838;2024-01-11T07:24:46;96234.84;;;-8.22;100.00
70559;BME280;58108;48.094;11.838;2024-01-11T07:27:12;96225.56;;;-8.12;100.00
70559;BME280;58108;48.094;11.838;2024-01-11T07:29:38;96225.72;;;-7.97;100.00
70559;BME280;58108;48.094;11.838;2024-01-11T07:32:04;96233.19;;;-8.18;100.00
70559;BME280;58108;48.094;11.838;2024-01-11T07:34:29;96229.25;;;-7.68;100.00
70559;BME280;58108;48.094;11.838;2024-01-11T07:36:55;96230.13;;;-7.61;100.00
70559;BME280;58108;48.094;11.838;2024-01-11T07:39:22;96225.09;;;-7.49;100.00
70559;BME280;58108;48.094;11.838;2024-01-11T07:41:48;96219.91;;;-7.71;100.00
70559;BME280;58108;48.094;11.838;2024-01-11T07:44:13;96220.66;;;-7.92;100.00
70559;BME280;58108;48.094;11.838;2024-01-11T07:46:39;96219.09;;;-7.63;100.00
70559;BME280;58108;48.094;11.838;2024-01-11T07:49:04;96219.16;;;-7.49;100.00
70559;BME280;58108;48.094;11.838;2024-01-11T07:51:30;96227.56;;;-7.69;100.00
70559;BME280;58108;48.094;11.838;2024-01-11T07:53:56;96229.34;;;-7.43;100.00
70559;BME280;58108;48.094;11.838;2024-01-11T07:56:21;96238.66;;;-7.50;100.00
70559;BME280;58108;48.094;11.838;2024-01-11T07:58:47;96234.56;;;-7.18;100.00
70559;BME280;58108;48.094;11.838;2024-01-11T08:01:13;96229.44;;;-7.29;100.00
70559;BME280;58108;48.094;11.838;2024-01-11T08:03:41;96232.06;;;-6.96;100.00
70559;BME280;58108;48.094;11.838;2024-01-11T08:06:10;96235.50;;;-6.74;100.00
70559;BME280;58108;48.094;11.838;2024-01-11T08:08:37;96232.13;;;-6.56;100.00
70559;BME280;58108;48.094;11.838;2024-01-11T08:11:05;96223.63;;;-6.70;100.00
70559;BME280;58108;48.094;11.838;2024-01-11T08:13:30;96221.09;;;-6.66;100.00
70559;BME280;58108;48.094;11.838;2024-01-11T08:15:57;96223.63;;;-6.75;100.00
70559;BME280;58108;48.094;11.838;2024-01-11T08:18:23;96226.19;;;-6.61;100.00
70559;BME280;58108;48.094;11.838;2024-01-11T08:20:49;96230.34;;;-7.07;100.00
70559;BME280;58108;48.094;11.838;2024-01-11T08:23:14;96238.06;;;-6.68;100.00
70559;BME280;58108;48.094;11.838;2024-01-11T08:25:40;96232.16;;;-6.45;100.00
70559;BME280;58108;48.094;11.838;2024-01-11T08:28:06;96232.13;;;-6.61;100.00
70559;BME280;58108;48.094;11.838;2024-01-11T08:30:32;96243.16;;;-6.49;100.00
70559;BME280;58108;48.094;11.838;2024-01-11T08:32:57;96243.19;;;-6.51;100.00
70559;BME280;58108;48.094;11.838;2024-01-11T08:35:23;96247.38;;;-6.00;100.00
70559;BME280;58108;48.094;11.838;2024-01-11T08:37:48;96254.22;;;-6.35;100.00
70559;BME280;58108;48.094;11.838;2024-01-11T08:40:14;96243.19;;;-6.34;100.00
70559;BME280;58108;48.094;11.838;2024-01-11T08:42:41;96239.78;;;-6.40;100.00
70559;BME280;58108;48.094;11.838;2024-01-11T08:45:08;96248.31;;;-6.40;100.00
70559;BME280;58108;48.094;11.838;2024-01-11T08:47:34;96256.78;;;-6.53;100.00
70559;BME280;58108;48.094;11.838;2024-01-11T08:50:00;96269.53;;;-6.33;100.00
70559;BME280;58108;48.094;11.838;2024-01-11T08:52:26;96268.66;;;-6.18;100.00
70559;BME280;58108;48.094;11.838;2024-01-11T08:54:51;96283.06;;;-5.73;100.00
70559;BME280;58108;48.094;11.838;2024-01-11T08:57:17;96288.97;;;-5.40;100.00
70559;BME280;58108;48.094;11.838;2024-01-11T08:59:43;96296.63;;;-5.46;100.00
70559;BME280;58108;48.094;11.838;2024-01-11T09:02:08;96291.59;;;-5.96;100.00
70559;BME280;58108;48.094;11.838;2024-01-11T09:04:34;96285.66;;;-5.92;100.00
70559;BME280;58108;48.094;11.838;2024-01-11T09:06:59;96291.59;;;-5.82;100.00
70559;BME280;58108;48.094;11.838;2024-01-11T09:09:25;96299.19;;;-5.54;100.00
70559;BME280;58108;48.094;11.838;2024-01-11T09:11:51;96312.00;;;-5.78;100.00
70559;BME280;58108;48.094;11.838;2024-01-11T09:14:17;96311.97;;;-5.73;100.00
70559;BME280;58108;48.094;11.838;2024-01-11T09:16:42;96321.34;;;-5.91;100.00
70559;BME280;58108;48.094;11.838;2024-01-11T09:19:10;96316.25;;;-5.87;100.00
70559;BME280;58108;48.094;11.838;2024-01-11T09:21:36;96303.47;;;-6.47;100.00
70559;BME280;58108;48.094;11.838;2024-01-11T09:24:01;96299.22;;;-6.54;100.00
70559;BME280;58108;48.094;11.838;2024-01-11T09:26:27;96294.97;;;-6.52;100.00
70559;BME280;58108;48.094;11.838;2024-01-11T09:28:52;96294.97;;;-6.52;100.00
70559;BME280;58108;48.094;11.838;2024-01-11T09:31:18;96311.16;;;-6.09;100.00
70559;BME280;58108;48.094;11.838;2024-01-11T09:33:43;96312.03;;;-6.13;100.00
70559;BME280;58108;48.094;11.838;2024-01-11T09:36:11;96317.13;;;-6.10;100.00
70559;BME280;58108;48.094;11.838;2024-01-11T09:38:36;96310.28;;;-6.53;100.00
70559;BME280;58108;48.094;11.838;2024-01-11T09:41:07;96304.31;;;-6.62;100.00
70559;BME280;58108;48.094;11.838;2024-01-11T09:43:36;96306.88;;;-6.43;100.00
70559;BME280;58108;48.094;11.838;2024-01-11T09:46:04;96299.97;;;-6.91;100.00
70559;BME280;58108;48.094;11.838;2024-01-11T09:48:34;96303.50;;;-6.20;100.00
70559;BME280;58108;48.094;11.838;2024-01-11T09:51:03;96296.63;;;-6.69;100.00
70559;BME280;58108;48.094;11.838;2024-01-11T09:53:32;96298.41;;;-6.34;100.00
70559;BME280;58108;48.094;11.838;2024-01-11T09:55:59;96300.94;;;-6.31;100.00
70559;BME280;58108;48.094;11.838;2024-01-11T09:58:25;96296.69;;;-5.73;100.00
70559;BME280;58108;48.094;11.838;2024-01-11T10:00:55;96283.94;;;-6.29;100.00
70559;BME280;58108;48.094;11.838;2024-01-11T10:03:24;96290.75;;;-6.50;100.00
70559;BME280;58108;48.094;11.838;2024-01-11T10:05:50;96279.63;;;-6.78;100.00
70559;BME280;58108;48.094;11.838;2024-01-11T10:08:21;96286.47;;;-6.57;100.00
70559;BME280;58108;48.094;11.838;2024-01-11T10:10:47;96266.97;;;-6.25;100.00
70559;BME280;58108;48.094;11.838;2024-01-11T10:13:14;96278.88;;;-6.15;100.00
70559;BME280;58108;48.094;11.838;2024-01-11T10:15:39;96265.25;;;-6.01;100.00
70559;BME280;58108;48.094;11.838;2024-01-11T10:18:05;96260.19;;;-6.09;100.00
70559;BME280;58108;48.094;11.838;2024-01-11T10:20:31;96267.84;;;-6.03;100.00
70559;BME280;58108;48.094;11.838;2024-01-11T10:22:57;96264.38;;;-5.68;100.00
70559;BME280;58108;48.094;11.838;2024-01-11T10:25:23;96254.97;;;-5.55;100.00
70559;BME280;58108;48.094;11.838;2024-01-11T10:27:49;96247.34;;;-5.66;100.00
70559;BME280;58108;48.094;11.838;2024-01-11T10:30:16;96245.69;;;-5.92;100.00
70559;BME280;58108;48.094;11.838;2024-01-11T10:32:43;96249.94;;;-5.98;100.00
70559;BME280;58108;48.094;11.838;2024-01-11T10:35:08;96255.88;;;-5.96;100.00
70559;BME280;58108;48.094;11.838;2024-01-11T10:37:36;96255.00;;;-5.61;100.00
70559;BME280;58108;48.094;11.838;2024-01-11T10:40:06;96246.50;;;-5.77;100.00
70559;BME280;58108;48.094;11.838;2024-01-11T10:42:38;96242.06;;;-5.14;100.00
70559;BME280;58108;48.094;11.838;2024-01-11T10:45:15;96239.53;;;-5.13;100.00
70559;BME280;58108;48.094;11.838;2024-01-11T10:47:56;96234.44;;;-5.19;100.00
70559;BME280;58108;48.094;11.838;2024-01-11T10:50:25;96221.81;;;-5.55;100.00
70559;BME280;58108;48.094;11.838;2024-01-11T10:53:04;96238.84;;;-5.69;100.00
70559;BME280;58108;48.094;11.838;2024-01-11T10:55:34;96243.78;;;-5.10;100.00
70559;BME280;58108;48.094;11.838;2024-01-11T10:58:00;96241.09;;;-4.82;100.00
70559;BME280;58108;48.094;11.838;2024-01-11T11:00:30;96258.94;;;-4.79;100.00
70559;BME280;58108;48.094;11.838;2024-01-11T11:02:59;96265.81;;;-4.92;100.00
70559;BME280;58108;48.094;11.838;2024-01-11T11:05:28;96252.31;;;-5.24;100.00
70559;BME280;58108;48.094;11.838;2024-01-11T11:07:59;96244.72;;;-5.35;100.00
70559;BME280;58108;48.094;11.838;2024-01-11T11:10:30;96236.22;;;-5.37;100.00
70559;BME280;58108;48.094;11.838;2024-01-11T11:12:56;96231.72;;;-4.86;100.00
70559;BME280;58108;48.094;11.838;2024-01-11T11:15:26;96228.16;;;-4.60;100.00
70559;BME280;58108;48.094;11.838;2024-01-11T11:17:52;96230.03;;;-4.87;100.00
70559;BME280;58108;48.094;11.838;2024-01-11T11:20:18;96240.03;;;-4.50;100.00
70559;BME280;58108;48.094;11.838;2024-01-11T11:22:48;96239.28;;;-4.66;100.00
70559;BME280;58108;48.094;11.838;2024-01-11T11:25:29;96237.31;;;-4.28;98.90
70559;BME280;58108;48.094;11.838;2024-01-11T11:27:55;96237.09;;;-4.02;97.29
70559;BME280;58108;48.094;11.838;2024-01-11T11:30:21;96245.00;;;-4.28;96.80
70559;BME280;58108;48.094;11.838;2024-01-11T11:32:47;96246.13;;;-4.73;100.00
70559;BME280;58108;48.094;11.838;2024-01-11T11:35:13;96252.03;;;-4.61;98.69
70559;BME280;58108;48.094;11.838;2024-01-11T11:37:39;96258.22;;;-5.01;99.50
70559;BME280;58108;48.094;11.838;2024-01-11T11:40:09;96233.38;;;-4.76;100.00
70559;BME280;58108;48.094;11.838;2024-01-11T11:42:36;96237.47;;;-4.53;100.00
70559;BME280;58108;48.094;11.838;2024-01-11T11:45:03;96231.50;;;-4.50;98.67
70559;BME280;58108;48.094;11.838;2024-01-11T11:47:35;96229.19;;;-4.86;98.72
70559;BME280;58108;48.094;11.838;2024-01-11T11:50:07;96236.22;;;-5.35;100.00
70559;BME280;58108;48.094;11.838;2024-01-11T11:52:34;96227.69;;;-5.36;100.00
70559;BME280;58108;48.094;11.838;2024-01-11T11:55:01;96230.88;;;-4.84;100.00
70559;BME280;58108;48.094;11.838;2024-01-11T11:57:27;96230.63;;;-4.48;100.00
70559;BME280;58108;48.094;11.838;2024-01-11T11:59:57;96237.69;;;-4.87;100.00
70559;BME280;58108;48.094;11.838;2024-01-11T12:02:25;96230.00;;;-4.83;100.00
70559;BME280;58108;48.094;11.838;2024-01-11T12:04:51;96236.06;;;-4.98;100.00
70559;BME280;58108;48.094;11.838;2024-01-11T12:07:17;96247.97;;;-4.97;100.00
70559;BME280;58108;48.094;11.838;2024-01-11T12:09:43;96245.44;;;-5.03;100.00
70559;BME280;58108;48.094;11.838;2024-01-11T12:12:09;96240.47;;;-5.34;100.00
70559;BME280;58108;48.094;11.838;2024-01-11T12:14:35;96242.13;;;-5.25;100.00
70559;BME280;58108;48.094;11.838;2024-01-11T12:17:01;96241.03;;;-4.74;100.00
70559;BME280;58108;48.094;11.838;2024-01-11T12:19:28;96244.41;;;-4.69;100.00
70559;BME280;58108;48.094;11.838;2024-01-11T12:21:54;96241.72;;;-4.49;100.00
70559;BME280;58108;48.094;11.838;2024-01-11T12:24:20;96219.91;;;-5.03;99.85
70559;BME280;58108;48.094;11.838;2024-01-11T12:26:49;96210.78;;;-5.65;100.00
70559;BME280;58108;48.094;11.838;2024-01-11T12:29:19;96220.94;;;-5.47;100.00
70559;BME280;58108;48.094;11.838;2024-01-11T12:31:45;96213.00;;;-4.87;100.00
70559;BME280;58108;48.094;11.838;2024-01-11T12:34:11;96215.78;;;-5.37;100.00
70559;BME280;58108;48.094;11.838;2024-01-11T12:36:38;96215.84;;;-5.52;100.00